sensor_id;sensor_type;location;lat;lon;timestamp;pressure;altitude;pressure_sealevel;temperature;humidity
50282;BME280;36176;51.506;10.272;2023-04-16T00:01:59;99407.19;;;9.14;100.00
50282;BME280;36176;51.506;10.272;2023-04-16T00:04:26;99409.19;;;9.09;100.00
50282;BME280;36176;51.506;10.272;2023-04-16T00:06:53;99420.59;;;9.09;100.00
50282;BME280;36176;51.506;10.272;2023-04-16T00:09:21;99419.63;;;9.12;100.00
50282;BME280;36176;51.506;10.272;2023-04-16T00:11:48;99418.63;;;9.14;100.00
50282;BME280;36176;51.506;10.272;2023-04-16T00:14:15;99422.16;;;9.15;100.00
50282;BME280;36176;51.506;10.272;2023-04-16T00:16:42;99430.88;;;9.17;100.00
50282;BME280;36176;51.506;10.272;2023-04-16T00:19:09;99428.44;;;9.12;100.00
50282;BME280;36176;51.506;10.272;2023-04-16T00:21:36;99434.44;;;9.16;100.00
50282;BME280;36176;51.506;10.272;2023-04-16T00:24:03;99425.69;;;9.14;100.00
50282;BME280;36176;51.506;10.272;2023-04-16T00:26:30;99431.94;;;9.13;100.00
50282;BME280;36176;51.506;10.272;2023-04-16T00:28:58;99429.16;;;9.16;100.00
50282;BME280;36176;51.506;10.272;2023-04-16T00:31:31;99423.84;;;9.16;100.00
50282;BME280;36176;51.506;10.272;2023-04-16T00:33:58;99423.91;;;9.14;100.00
50282;BME280;36176;51.506;10.272;2023-04-16T00:36:26;99429.28;;;9.13;100.00
50282;BME280;36176;51.506;10.272;2023-04-16T00:38:54;99432.84;;;9.12;100.00
50282;BME280;36176;51.506;10.272;2023-04-16T00:41:22;99426.63;;;9.13;100.00
50282;BME280;36176;51.506;10.272;2023-04-16T00:43:49;99432.84;;;9.12;100.00
50282;BME280;36176;51.506;10.272;2023-04-16T00:46:18;99431.13;;;9.11;100.00
50282;BME280;36176;51.506;10.272;2023-04-16T00:48:45;99433.81;;;9.09;100.00
50282;BME280;36176;51.506;10.272;2023-04-16T00:51:13;99440.09;;;9.07;100.00
50282;BME280;36176;51.506;10.272;2023-04-16T00:53:41;99438.31;;;9.07;100.00
50282;BME280;36176;51.506;10.272;2023-04-16T00:56:09;99431.13;;;9.11;100.00
50282;BME280;36176;51.506;10.272;2023-04-16T00:58:36;99431.97;;;9.11;100.00
50282;BME280;36176;51.506;10.272;2023-04-16T01:01:03;99437.25;;;9.11;100.00
50282;BME280;36176;51.506;10.272;2023-04-16T01:03:36;99438.44;;;9.04;100.00
50282;BME280;36176;51.506;10.272;2023-04-16T01:06:07;99436.84;;;9.00;100.00
50282;BME280;36176;51.506;10.272;2023-04-16T01:08:35;99442.25;;;8.97;100.00
50282;BME280;36176;51.506;10.272;2023-04-16T01:11:02;99445.19;;;8.91;100.00
50282;BME280;36176;51.506;10.272;2023-04-16T01:13:30;99441.66;;;8.90;100.00
50282;BME280;36176;51.506;10.272;2023-04-16T01:15:57;99445.28;;;8.88;100.00
50282;BME280;36176;51.506;10.272;2023-04-16T01:18:24;99445.28;;;8.88;100.00
50282;BME280;36176;51.506;10.272;2023-04-16T01:20:51;99455.13;;;8.84;100.00
50282;BME280;36176;51.506;10.272;2023-04-16T01:23:18;99449.88;;;8.83;100.00
50282;BME280;36176;51.506;10.272;2023-04-16T01:25:51;99453.50;;;8.80;100.00
50282;BME280;36176;51.506;10.272;2023-04-16T01:28:18;99446.41;;;8.82;100.00
50282;BME280;36176;51.506;10.272;2023-04-16T01:30:45;99448.28;;;8.79;100.00
50282;BME280;36176;51.506;10.272;2023-04-16T01:33:13;99455.25;;;8.81;100.00
50282;BME280;36176;51.506;10.272;2023-04-16T01:35:40;99453.47;;;8.82;100.00
50282;BME280;36176;51.506;10.272;2023-04-16T01:38:08;99457.75;;;8.84;100.00
50282;BME280;36176;51.506;10.272;2023-04-16T01:40:36;99458.00;;;8.78;100.00
50282;BME280;36176;51.506;10.272;2023-04-16T01:43:03;99459.75;;;8.79;100.00
50282;BME280;36176;51.506;10.272;2023-04-16T01:45:32;99457.16;;;8.78;100.00
50282;BME280;36176;51.506;10.272;2023-04-16T01:47:59;99455.50;;;8.75;100.00
50282;BME280;36176;51.506;10.272;2023-04-16T01:50:27;99453.84;;;8.72;100.00
50282;BME280;36176;51.506;10.272;2023-04-16T01:52:55;99455.63;;;8.72;100.00
50282;BME280;36176;51.506;10.272;2023-04-16T01:55:22;99454.81;;;8.70;100.00
50282;BME280;36176;51.506;10.272;2023-04-16T01:57:49;99454.81;;;8.70;100.00
50282;BME280;36176;51.506;10.272;2023-04-16T02:00:16;99455.72;;;8.69;100.00
50282;BME280;36176;51.506;10.272;2023-04-16T02:02:43;99455.72;;;8.69;100.00
50282;BME280;36176;51.506;10.272;2023-04-16T02:05:10;99458.34;;;8.69;100.00
50282;BME280;36176;51.506;10.272;2023-04-16T02:07:37;99457.69;;;8.64;100.00
50282;BME280;36176;51.506;10.272;2023-04-16T02:10:05;99457.63;;;8.65;100.00
50282;BME280;36176;51.506;10.272;2023-04-16T02:12:32;99455.00;;;8.65;100.00
50282;BME280;36176;51.506;10.272;2023-04-16T02:14:59;99466.53;;;8.63;100.00
50282;BME280;36176;51.506;10.272;2023-04-16T02:17:26;99466.78;;;8.57;100.00
50282;BME280;36176;51.506;10.272;2023-04-16T02:19:53;99464.38;;;8.50;100.00
50282;BME280;36176;51.506;10.272;2023-04-16T02:22:20;99467.88;;;8.51;100.00
50282;BME280;36176;51.506;10.272;2023-04-16T02:24:47;99469.53;;;8.54;100.00
50282;BME280;36176;51.506;10.272;2023-04-16T02:27:16;99474.81;;;8.54;100.00
50282;BME280;36176;51.506;10.272;2023-04-16T02:29:43;99470.47;;;8.52;100.00
50282;BME280;36176;51.506;10.272;2023-04-16T02:32:10;99465.38;;;8.48;100.00
50282;BME280;36176;51.506;10.272;2023-04-16T02:34:37;99468.88;;;8.48;100.00
50282;BME280;36176;51.506;10.272;2023-04-16T02:37:06;99476.78;;;8.48;100.00
50282;BME280;36176;51.506;10.272;2023-04-16T02:39:33;99476.91;;;8.45;100.00
50282;BME280;36176;51.506;10.272;2023-04-16T02:41:59;99476.19;;;8.40;100.00
50282;BME280;36176;51.506;10.272;2023-04-16T02:44:28;99480.56;;;8.41;100.00
50282;BME280;36176;51.506;10.272;2023-04-16T02:46:55;99482.50;;;8.36;100.00
50282;BME280;36176;51.506;10.272;2023-04-16T02:49:22;99488.69;;;8.35;100.00
50282;BME280;36176;51.506;10.272;2023-04-16T02:51:49;99478.94;;;8.37;100.00
50282;BME280;36176;51.506;10.272;2023-04-16T02:54:16;99481.75;;;8.32;100.00
50282;BME280;36176;51.506;10.272;2023-04-16T02:56:43;99489.56;;;8.36;100.00
50282;BME280;36176;51.506;10.272;2023-04-16T02:59:09;99487.81;;;8.35;100.00
50282;BME280;36176;51.506;10.272;2023-04-16T03:01:37;99489.66;;;8.32;100.00
50282;BME280;36176;51.506;10.272;2023-04-16T03:04:04;99488.59;;;8.38;100.00
50282;BME280;36176;51.506;10.272;2023-04-16T03:06:31;99486.81;;;8.39;100.00
50282;BME280;36176;51.506;10.272;2023-04-16T03:08:58;99483.53;;;8.32;100.00
50282;BME280;36176;51.506;10.272;2023-04-16T03:11:25;99490.59;;;8.31;100.00
50282;BME280;36176;51.506;10.272;2023-04-16T03:13:52;99492.13;;;8.37;100.00
50282;BME280;36176;51.506;10.272;2023-04-16T03:16:19;99491.50;;;8.30;100.00
50282;BME280;36176;51.506;10.272;2023-04-16T03:18:46;99493.28;;;8.30;100.00
50282;BME280;36176;51.506;10.272;2023-04-16T03:21:13;99492.47;;;8.28;100.00
50282;BME280;36176;51.506;10.272;2023-04-16T03:23:40;99493.22;;;8.31;100.00
50282;BME280;36176;51.506;10.272;2023-04-16T03:26:07;99487.31;;;8.25;100.00
50282;BME280;36176;51.506;10.272;2023-04-16T03:28:34;99489.16;;;8.23;100.00
50282;BME280;36176;51.506;10.272;2023-04-16T03:31:03;99502.31;;;8.24;100.00
50282;BME280;36176;51.506;10.272;2023-04-16T03:33:30;99502.34;;;8.23;100.00
50282;BME280;36176;51.506;10.272;2023-04-16T03:35:57;99501.50;;;8.22;100.00
50282;BME280;36176;51.506;10.272;2023-04-16T03:38:24;99506.78;;;8.22;100.00
50282;BME280;36176;51.506;10.272;2023-04-16T03:40:52;99504.13;;;8.22;100.00
50282;BME280;36176;51.506;10.272;2023-04-16T03:43:19;99507.75;;;8.20;100.00
50282;BME280;36176;51.506;10.272;2023-04-16T03:45:46;99514.84;;;8.18;100.00
50282;BME280;36176;51.506;10.272;2023-04-16T03:48:13;99517.50;;;8.18;100.00
50282;BME280;36176;51.506;10.272;2023-04-16T03:50:45;99520.94;;;8.20;100.00
50282;BME280;36176;51.506;10.272;2023-04-16T03:53:13;99527.94;;;8.21;100.00
50282;BME280;36176;51.506;10.272;2023-04-16T03:55:41;99523.34;;;8.26;100.00
50282;BME280;36176;51.506;10.272;2023-04-16T03:58:08;99533.13;;;8.24;100.00
50282;BME280;36176;51.506;10.272;2023-04-16T04:00:35;99541.03;;;8.24;100.00
50282;BME280;36176;51.506;10.272;2023-04-16T04:03:02;99529.75;;;8.19;100.00
50282;BME280;36176;51.506;10.272;2023-04-16T04:05:30;99536.78;;;8.20;100.00
50282;BME280;36176;51.506;10.272;2023-04-16T04:07:57;99535.84;;;8.21;100.00
50282;BME280;36176;51.506;10.272;2023-04-16T04:10:24;99530.66;;;8.19;100.00
50282;BME280;36176;51.506;10.272;2023-04-16T04:12:51;99539.47;;;8.18;100.00
50282;BME280;36176;51.506;10.272;2023-04-16T04:15:18;99546.53;;;8.18;100.00
50282;BME280;36176;51.506;10.272;2023-04-16T04:17:45;99542.09;;;8.18;100.00
50282;BME280;36176;51.506;10.272;2023-04-16T04:20:12;99546.41;;;8.21;100.00
50282;BME280;36176;51.506;10.272;2023-04-16T04:22:40;99546.38;;;8.22;100.00
50282;BME280;36176;51.506;10.272;2023-04-16T04:25:09;99543.78;;;8.21;100.00
50282;BME280;36176;51.506;10.272;2023-04-16T04:27:36;99560.41;;;8.23;100.00
50282;BME280;36176;51.506;10.272;2023-04-16T04:30:03;99556.00;;;8.23;100.00
50282;BME280;36176;51.506;10.272;2023-04-16T04:32:31;99562.88;;;8.27;100.00
50282;BME280;36176;51.506;10.272;2023-04-16T04:35:00;99562.84;;;8.29;100.00
50282;BME280;36176;51.506;10.272;2023-04-16T04:37:28;99572.44;;;8.31;100.00
50282;BME280;36176;51.506;10.272;2023-04-16T04:39:55;99570.81;;;8.27;100.00
50282;BME280;36176;51.506;10.272;2023-04-16T04:42:22;99567.34;;;8.25;100.00
50282;BME280;36176;51.506;10.272;2023-04-16T04:44:49;99568.34;;;8.23;100.00
50282;BME280;36176;51.506;10.272;2023-04-16T04:47:16;99568.44;;;8.20;100.00
50282;BME280;36176;51.506;10.272;2023-04-16T04:49:43;99580.88;;;8.16;100.00
50282;BME280;36176;51.506;10.272;2023-04-16T04:52:10;99577.19;;;8.22;100.00
50282;BME280;36176;51.506;10.272;2023-04-16T04:54:37;99574.47;;;8.23;100.00
50282;BME280;36176;51.506;10.272;2023-04-16T04:57:07;99578.09;;;8.21;100.00
50282;BME280;36176;51.506;10.272;2023-04-16T04:59:34;99580.03;;;8.16;100.00
50282;BME280;36176;51.506;10.272;2023-04-16T05:02:01;99584.28;;;8.20;100.00
50282;BME280;36176;51.506;10.272;2023-04-16T05:04:29;99576.25;;;8.23;100.00
50282;BME280;36176;51.506;10.272;2023-04-16T05:06:56;99582.50;;;8.20;100.00
50282;BME280;36176;51.506;10.272;2023-04-16T05:09:23;99586.94;;;8.20;100.00
50282;BME280;36176;51.506;10.272;2023-04-16T05:11:50;99592.38;;;8.15;100.00
50282;BME280;36176;51.506;10.272;2023-04-16T05:14:17;99591.50;;;8.15;100.00
50282;BME280;36176;51.506;10.272;2023-04-16T05:16:44;99595.00;;;8.15;100.00
50282;BME280;36176;51.506;10.272;2023-04-16T05:19:12;99591.44;;;8.16;100.00
50282;BME280;36176;51.506;10.272;2023-04-16T05:21:39;99596.72;;;8.16;100.00
50282;BME280;36176;51.506;10.272;2023-04-16T05:24:06;99591.56;;;8.13;100.00
50282;BME280;36176;51.506;10.272;2023-04-16T05:26:33;99601.13;;;8.16;100.00
50282;BME280;36176;51.506;10.272;2023-04-16T05:29:00;99604.72;;;8.15;100.00
50282;BME280;36176;51.506;10.272;2023-04-16T05:31:27;99602.34;;;8.07;100.00
50282;BME280;36176;51.506;10.272;2023-04-16T05:33:54;99610.47;;;8.01;100.00
50282;BME280;36176;51.506;10.272;2023-04-16T05:36:21;99616.56;;;8.03;100.00
50282;BME280;36176;51.506;10.272;2023-04-16T05:38:48;99624.34;;;8.06;100.00
50282;BME280;36176;51.506;10.272;2023-04-16T05:41:15;99622.72;;;8.02;100.00
50282;BME280;36176;51.506;10.272;2023-04-16T05:43:42;99619.19;;;8.03;100.00
50282;BME280;36176;51.506;10.272;2023-04-16T05:46:09;99620.91;;;8.04;100.00
50282;BME280;36176;51.506;10.272;2023-04-16T05:48:37;99627.97;;;8.03;100.00
50282;BME280;36176;51.506;10.272;2023-04-16T05:51:04;99624.41;;;8.04;100.00
50282;BME280;36176;51.506;10.272;2023-04-16T05:53:31;99629.66;;;8.04;100.00
50282;BME280;36176;51.506;10.272;2023-04-16T05:55:58;99633.81;;;8.12;100.00
50282;BME280;36176;51.506;10.272;2023-04-16T05:58:25;99633.66;;;8.16;100.00
50282;BME280;36176;51.506;10.272;2023-04-16T06:00:51;99634.63;;;8.14;100.00
50282;BME280;36176;51.506;10.272;2023-04-16T06:03:18;99638.25;;;8.11;100.00
50282;BME280;36176;51.506;10.272;2023-04-16T06:05:45;99648.09;;;8.06;100.00
50282;BME280;36176;51.506;10.272;2023-04-16T06:08:12;99648.16;;;8.04;100.00
50282;BME280;36176;51.506;10.272;2023-04-16T06:10:40;99647.44;;;7.99;100.00
50282;BME280;36176;51.506;10.272;2023-04-16T06:13:07;99651.91;;;7.97;100.00
50282;BME280;36176;51.506;10.272;2023-04-16T06:15:33;99654.50;;;7.99;100.00
50282;BME280;36176;51.506;10.272;2023-04-16T06:18:00;99657.91;;;8.02;100.00
50282;BME280;36176;51.506;10.272;2023-04-16T06:20:27;99658.81;;;8.01;100.00
50282;BME280;36176;51.506;10.272;2023-04-16T06:22:55;99661.44;;;8.01;100.00
50282;BME280;36176;51.506;10.272;2023-04-16T06:25:22;99668.47;;;8.02;100.00
50282;BME280;36176;51.506;10.272;2023-04-16T06:27:49;99672.00;;;8.01;100.00
50282;BME280;36176;51.506;10.272;2023-04-16T06:30:16;99670.28;;;8.00;100.00
50282;BME280;36176;51.506;10.272;2023-04-16T06:32:43;99674.13;;;7.90;100.00
50282;BME280;36176;51.506;10.272;2023-04-16T06:35:10;99683.91;;;7.88;100.00
50282;BME280;36176;51.506;10.272;2023-04-16T06:37:37;99685.59;;;7.89;100.00
50282;BME280;36176;51.506;10.272;2023-04-16T06:40:04;99689.09;;;7.89;100.00
50282;BME280;36176;51.506;10.272;2023-04-16T06:42:31;99691.00;;;7.86;100.00
50282;BME280;36176;51.506;10.272;2023-04-16T06:44:58;99692.84;;;7.82;100.00
50282;BME280;36176;51.506;10.272;2023-04-16T06:47:25;99691.25;;;7.78;100.00
50282;BME280;36176;51.506;10.272;2023-04-16T06:49:56;99695.59;;;7.79;100.00
50282;BME280;36176;51.506;10.272;2023-04-16T06:52:23;99696.56;;;7.77;100.00
50282;BME280;36176;51.506;10.272;2023-04-16T06:54:50;99693.88;;;7.78;100.00
50282;BME280;36176;51.506;10.272;2023-04-16T06:57:16;99693.81;;;7.80;100.00
50282;BME280;36176;51.506;10.272;2023-04-16T06:59:43;99702.69;;;7.77;100.00
50282;BME280;36176;51.506;10.272;2023-04-16T07:02:10;99693.97;;;7.75;100.00
50282;BME280;36176;51.506;10.272;2023-04-16T07:04:37;99700.91;;;7.78;100.00
50282;BME280;36176;51.506;10.272;2023-04-16T07:07:04;99698.28;;;7.78;100.00
50282;BME280;36176;51.506;10.272;2023-04-16T07:09:31;99696.38;;;7.83;100.00
50282;BME280;36176;51.506;10.272;2023-04-16T07:11:58;99701.53;;;7.86;100.00
50282;BME280;36176;51.506;10.272;2023-04-16T07:14:25;99707.63;;;7.88;100.00
50282;BME280;36176;51.506;10.272;2023-04-16T07:16:53;99707.38;;;7.96;100.00
50282;BME280;36176;51.506;10.272;2023-04-16T07:19:20;99716.03;;;7.99;100.00
50282;BME280;36176;51.506;10.272;2023-04-16T07:21:46;99721.28;;;8.01;100.00
50282;BME280;36176;51.506;10.272;2023-04-16T07:24:13;99715.16;;;8.00;100.00
50282;BME280;36176;51.506;10.272;2023-04-16T07:26:41;99717.56;;;8.06;100.00
50282;BME280;36176;51.506;10.272;2023-04-16T07:29:08;99720.28;;;8.05;100.00
50282;BME280;36176;51.506;10.272;2023-04-16T07:31:35;99723.00;;;8.02;100.00
50282;BME280;36176;51.506;10.272;2023-04-16T07:34:02;99720.50;;;7.97;100.00
50282;BME280;36176;51.506;10.272;2023-04-16T07:36:31;99722.66;;;7.86;100.00
50282;BME280;36176;51.506;10.272;2023-04-16T07:38:58;99727.22;;;7.81;100.00
50282;BME280;36176;51.506;10.272;2023-04-16T07:41:25;99729.84;;;7.81;100.00
50282;BME280;36176;51.506;10.272;2023-04-16T07:43:52;99729.84;;;7.81;100.00
50282;BME280;36176;51.506;10.272;2023-04-16T07:46:19;99734.16;;;7.83;100.00
50282;BME280;36176;51.506;10.272;2023-04-16T07:48:47;99741.25;;;7.81;100.00
50282;BME280;36176;51.506;10.272;2023-04-16T07:51:14;99739.72;;;7.74;100.00
50282;BME280;36176;51.506;10.272;2023-04-16T07:53:43;99748.53;;;7.73;100.00
50282;BME280;36176;51.506;10.272;2023-04-16T07:56:10;99742.50;;;7.70;100.00
50282;BME280;36176;51.506;10.272;2023-04-16T07:58:37;99755.59;;;7.73;100.00
50282;BME280;36176;51.506;10.272;2023-04-16T08:01:04;99752.00;;;7.75;100.00
50282;BME280;36176;51.506;10.272;2023-04-16T08:03:31;99755.53;;;7.76;100.00
50282;BME280;36176;51.506;10.272;2023-04-16T08:05:59;99756.28;;;7.79;100.00
50282;BME280;36176;51.506;10.272;2023-04-16T08:08:26;99757.19;;;7.78;100.00
50282;BME280;36176;51.506;10.272;2023-04-16T08:10:53;99765.13;;;7.77;100.00
50282;BME280;36176;51.506;10.272;2023-04-16T08:13:22;99768.69;;;7.76;100.00
50282;BME280;36176;51.506;10.272;2023-04-16T08:15:49;99770.41;;;7.77;100.00
50282;BME280;36176;51.506;10.272;2023-04-16T08:18:17;99773.06;;;7.77;100.00
50282;BME280;36176;51.506;10.272;2023-04-16T08:20:48;99775.78;;;7.74;100.00
50282;BME280;36176;51.506;10.272;2023-04-16T08:23:14;99777.53;;;7.73;100.00
50282;BME280;36176;51.506;10.272;2023-04-16T08:25:41;99766.28;;;7.68;100.00
50282;BME280;36176;51.506;10.272;2023-04-16T08:28:08;99776.09;;;7.63;100.00
50282;BME280;36176;51.506;10.272;2023-04-16T08:30:35;99784.13;;;7.60;100.00
50282;BME280;36176;51.506;10.272;2023-04-16T08:33:02;99789.25;;;7.64;100.00
50282;BME280;36176;51.506;10.272;2023-04-16T08:35:29;99789.25;;;7.64;100.00
50282;BME280;36176;51.506;10.272;2023-04-16T08:37:56;99791.91;;;7.64;100.00
50282;BME280;36176;51.506;10.272;2023-04-16T08:40:28;99798.13;;;7.62;100.00
50282;BME280;36176;51.506;10.272;2023-04-16T08:42:57;99806.75;;;7.67;100.00
50282;BME280;36176;51.506;10.272;2023-04-16T08:45:26;99801.38;;;7.70;100.00
50282;BME280;36176;51.506;10.272;2023-04-16T08:47:53;99802.19;;;7.74;100.00
50282;BME280;36176;51.506;10.272;2023-04-16T08:50:25;99804.09;;;7.69;100.00
50282;BME280;36176;51.506;10.272;2023-04-16T08:52:59;99810.09;;;7.74;100.00
50282;BME280;36176;51.506;10.272;2023-04-16T08:55:49;99803.91;;;7.73;100.00
50282;BME280;36176;51.506;10.272;2023-04-16T08:58:21;99809.94;;;7.78;100.00
50282;BME280;36176;51.506;10.272;2023-04-16T09:00:48;99812.53;;;7.80;100.00
50282;BME280;36176;51.506;10.272;2023-04-16T09:03:15;99810.72;;;7.82;100.00
50282;BME280;36176;51.506;10.272;2023-04-16T09:05:42;99814.25;;;7.81;100.00
50282;BME280;36176;51.506;10.272;2023-04-16T09:08:10;99816.81;;;7.84;100.00
50282;BME280;36176;51.506;10.272;2023-04-16T09:10:38;99823.03;;;7.81;100.00
50282;BME280;36176;51.506;10.272;2023-04-16T09:13:05;99817.06;;;7.75;100.00
50282;BME280;36176;51.506;10.272;2023-04-16T09:15:34;99820.53;;;7.77;100.00
50282;BME280;36176;51.506;10.272;2023-04-16T09:18:01;99824.00;;;7.79;100.00
50282;BME280;36176;51.506;10.272;2023-04-16T09:20:28;99815.13;;;7.81;100.00
50282;BME280;36176;51.506;10.272;2023-04-16T09:22:55;99828.34;;;7.80;100.00
50282;BME280;36176;51.506;10.272;2023-04-16T09:25:23;99829.28;;;7.79;100.00
50282;BME280;36176;51.506;10.272;2023-04-16T09:27:50;99833.63;;;7.80;100.00
50282;BME280;36176;51.506;10.272;2023-04-16T09:32:48;99839.84;;;7.77;100.00
50282;BME280;36176;51.506;10.272;2023-04-16T09:35:19;99847.78;;;7.77;100.00
50282;BME280;36176;51.506;10.272;2023-04-16T09:37:56;99850.25;;;7.83;100.00
50282;BME280;36176;51.506;10.272;2023-04-16T09:40:25;99850.25;;;7.83;100.00
50282;BME280;36176;51.506;10.272;2023-04-16T09:42:56;99846.91;;;7.77;100.00
50282;BME280;36176;51.506;10.272;2023-04-16T09:45:23;99854.94;;;7.74;100.00
50282;BME280;36176;51.506;10.272;2023-04-16T09:47:50;99856.63;;;7.75;100.00
50282;BME280;36176;51.506;10.272;2023-04-16T09:50:18;99850.50;;;7.74;100.00
50282;BME280;36176;51.506;10.272;2023-04-16T09:52:49;99867.91;;;7.80;100.00
50282;BME280;36176;51.506;10.272;2023-04-16T09:55:26;99869.44;;;7.88;100.00
50282;BME280;36176;51.506;10.272;2023-04-16T09:57:59;99866.72;;;7.90;100.00
50282;BME280;36176;51.506;10.272;2023-04-16T10:00:28;99870.13;;;7.95;100.00
50282;BME280;36176;51.506;10.272;2023-04-16T10:03:03;99874.31;;;8.02;100.00
50282;BME280;36176;51.506;10.272;2023-04-16T10:05:31;99875.03;;;8.07;100.00
50282;BME280;36176;51.506;10.272;2023-04-16T10:07:59;99875.91;;;8.06;100.00
50282;BME280;36176;51.506;10.272;2023-04-16T10:10:28;99890.06;;;8.04;100.00
50282;BME280;36176;51.506;10.272;2023-04-16T10:12:55;99885.66;;;8.04;100.00
50282;BME280;36176;51.506;10.272;2023-04-16T10:15:25;99883.84;;;8.06;100.00
50282;BME280;36176;51.506;10.272;2023-04-16T10:17:52;99890.78;;;8.09;100.00
50282;BME280;36176;51.506;10.272;2023-04-16T10:20:21;99894.22;;;8.13;100.00
50282;BME280;36176;51.506;10.272;2023-04-16T10:22:49;99893.09;;;8.21;100.00
50282;BME280;36176;51.506;10.272;2023-04-16T10:25:16;99895.50;;;8.27;100.00
50282;BME280;36176;51.506;10.272;2023-04-16T10:27:44;99901.44;;;8.36;100.00
50282;BME280;36176;51.506;10.272;2023-04-16T10:30:12;99911.81;;;8.42;100.00
50282;BME280;36176;51.506;10.272;2023-04-16T10:32:41;99901.94;;;8.48;100.00
50282;BME280;36176;51.506;10.272;2023-04-16T10:35:08;99909.03;;;8.46;100.00
50282;BME280;36176;51.506;10.272;2023-04-16T10:37:36;99905.28;;;8.54;100.00
50282;BME280;36176;51.506;10.272;2023-04-16T10:40:21;99914.59;;;8.65;100.00
50282;BME280;36176;51.506;10.272;2023-04-16T10:43:07;99909.06;;;8.73;100.00
50282;BME280;36176;51.506;10.272;2023-04-16T10:45:37;99905.47;;;8.76;100.00
50282;BME280;36176;51.506;10.272;2023-04-16T10:48:05;99904.50;;;8.78;100.00
50282;BME280;36176;51.506;10.272;2023-04-16T10:50:35;99907.28;;;8.73;100.00
50282;BME280;36176;51.506;10.272;2023-04-16T10:53:19;99908.25;;;8.71;99.46
50282;BME280;36176;51.506;10.272;2023-04-16T10:56:09;99920.84;;;8.63;100.00
50282;BME280;36176;51.506;10.272;2023-04-16T10:58:37;99908.47;;;8.65;100.00
50282;BME280;36176;51.506;10.272;2023-04-16T11:01:11;99922.72;;;8.59;100.00
50282;BME280;36176;51.506;10.272;2023-04-16T11:03:43;99915.56;;;8.63;100.00
50282;BME280;36176;51.506;10.272;2023-04-16T11:06:13;99923.50;;;8.63;100.00
50282;BME280;36176;51.506;10.272;2023-04-16T11:08:40;99922.56;;;8.64;100.00
50282;BME280;36176;51.506;10.272;2023-04-16T11:11:20;99929.38;;;8.71;99.97
50282;BME280;36176;51.506;10.272;2023-04-16T11:13:47;99925.22;;;8.64;100.00
50282;BME280;36176;51.506;10.272;2023-04-16T11:16:15;99919.22;;;8.59;99.80
50282;BME280;36176;51.506;10.272;2023-04-16T11:18:44;99928.91;;;8.58;100.00
50282;BME280;36176;51.506;10.272;2023-04-16T11:21:18;99927.03;;;8.62;100.00
50282;BME280;36176;51.506;10.272;2023-04-16T11:23:51;99930.34;;;8.68;100.00
50282;BME280;36176;51.506;10.272;2023-04-16T11:26:26;99932.16;;;8.66;99.38
50282;BME280;36176;51.506;10.272;2023-04-16T11:28:54;99929.50;;;8.68;99.25
50282;BME280;36176;51.506;10.272;2023-04-16T11:31:22;99927.09;;;8.60;99.37
50282;BME280;36176;51.506;10.272;2023-04-16T11:33:49;99931.41;;;8.63;99.80
50282;BME280;36176;51.506;10.272;2023-04-16T11:36:16;99931.31;;;8.66;99.80
50282;BME280;36176;51.506;10.272;2023-04-16T11:38:44;99924.19;;;8.68;99.07
50282;BME280;36176;51.506;10.272;2023-04-16T11:41:18;99934.66;;;8.71;99.33
50282;BME280;36176;51.506;10.272;2023-04-16T11:43:45;99939.50;;;8.85;99.32
50282;BME280;36176;51.506;10.272;2023-04-16T11:46:12;99934.06;;;8.89;98.04
50282;BME280;36176;51.506;10.272;2023-04-16T11:48:53;99933.28;;;8.86;98.54
50282;BME280;36176;51.506;10.272;2023-04-16T11:51:21;99940.06;;;8.94;98.56
50282;BME280;36176;51.506;10.272;2023-04-16T11:53:50;99930.88;;;9.06;98.43
50282;BME280;36176;51.506;10.272;2023-04-16T11:56:26;99941.34;;;9.09;97.07
50282;BME280;36176;51.506;10.272;2023-04-16T11:59:11;99944.91;;;9.08;97.04
50282;BME280;36176;51.506;10.272;2023-04-16T12:01:40;99943.25;;;9.04;97.20
50282;BME280;36176;51.506;10.272;2023-04-16T12:04:07;99941.25;;;9.12;97.84
50282;BME280;36176;51.506;10.272;2023-04-16T12:06:35;99946.56;;;9.11;96.48
50282;BME280;36176;51.506;10.272;2023-04-16T12:09:21;99939.56;;;9.10;96.97
50282;BME280;36176;51.506;10.272;2023-04-16T12:11:49;99938.06;;;9.03;96.31
50282;BME280;36176;51.506;10.272;2023-04-16T12:14:16;99942.31;;;9.07;96.25
50282;BME280;36176;51.506;10.272;2023-04-16T12:16:44;99946.56;;;9.11;96.85
50282;BME280;36176;51.506;10.272;2023-04-16T12:19:12;99942.94;;;9.15;96.77
50282;BME280;36176;51.506;10.272;2023-04-16T12:21:47;99947.00;;;9.24;95.75
50282;BME280;36176;51.506;10.272;2023-04-16T12:24:16;99943.09;;;9.35;95.72
50282;BME280;36176;51.506;10.272;2023-04-16T12:26:47;99935.34;;;9.56;95.60
50282;BME280;36176;51.506;10.272;2023-04-16T12:29:25;99945.34;;;9.71;94.77
50282;BME280;36176;51.506;10.272;2023-04-16T12:31:53;99943.47;;;9.75;93.73
50282;BME280;36176;51.506;10.272;2023-04-16T12:34:20;99951.03;;;9.61;92.87
50282;BME280;36176;51.506;10.272;2023-04-16T12:37:06;99946.88;;;9.53;93.23
50282;BME280;36176;51.506;10.272;2023-04-16T12:39:35;99951.22;;;9.56;93.76
50282;BME280;36176;51.506;10.272;2023-04-16T12:42:02;99946.59;;;9.61;93.31
50282;BME280;36176;51.506;10.272;2023-04-16T12:44:31;99953.69;;;9.61;92.89
50282;BME280;36176;51.506;10.272;2023-04-16T12:46:58;99957.16;;;9.63;93.74
50282;BME280;36176;51.506;10.272;2023-04-16T12:49:24;99958.41;;;9.76;93.39
50282;BME280;36176;51.506;10.272;2023-04-16T12:51:51;99955.31;;;9.88;92.13
50282;BME280;36176;51.506;10.272;2023-04-16T12:54:18;99956.09;;;9.92;91.63
50282;BME280;36176;51.506;10.272;2023-04-16T12:56:46;99960.13;;;10.02;91.76
50282;BME280;36176;51.506;10.272;2023-04-16T12:59:13;99956.38;;;10.08;91.64